sensor_id;sensor_type;location;lat;lon;timestamp;P1;durP1;ratioP1;P2;durP2;ratioP2
35578;SDS011;21687;48.900;9.188;2023-04-20T00:00:56;6.23;;;5.47;;
35578;SDS011;21687;48.900;9.188;2023-04-20T00:03:22;5.90;;;4.90;;
35578;SDS011;21687;48.900;9.188;2023-04-20T00:05:48;5.27;;;4.40;;
35578;SDS011;21687;48.900;9.188;2023-04-20T00:08:17;6.27;;;4.97;;
35578;SDS011;21687;48.900;9.188;2023-04-20T00:10:44;6.40;;;4.43;;
35578;SDS011;21687;48.900;9.188;2023-04-20T00:13:10;6.07;;;5.03;;
35578;SDS011;21687;48.900;9.188;2023-04-20T00:15:37;6.47;;;5.40;;
35578;SDS011;21687;48.900;9.188;2023-04-20T00:18:03;7.60;;;5.60;;
35578;SDS011;21687;48.900;9.188;2023-04-20T00:20:29;8.27;;;5.73;;
35578;SDS011;21687;48.900;9.188;2023-04-20T00:22:56;8.53;;;6.40;;
35578;SDS011;21687;48.900;9.188;2023-04-20T00:25:22;9.13;;;6.13;;
35578;SDS011;21687;48.900;9.188;2023-04-20T00:27:48;6.43;;;5.27;;
35578;SDS011;21687;48.900;9.188;2023-04-20T00:30:14;10.73;;;5.37;;
35578;SDS011;21687;48.900;9.188;2023-04-20T00:32:40;7.70;;;5.50;;
35578;SDS011;21687;48.900;9.188;2023-04-20T00:35:07;8.23;;;5.67;;
35578;SDS011;21687;48.900;9.188;2023-04-20T00:37:33;7.40;;;5.50;;
35578;SDS011;21687;48.900;9.188;2023-04-20T00:39:59;7.57;;;5.80;;
35578;SDS011;21687;48.900;9.188;2023-04-20T00:42:26;7.10;;;5.90;;
35578;SDS011;21687;48.900;9.188;2023-04-20T00:44:52;7.73;;;5.80;;
35578;SDS011;21687;48.900;9.188;2023-04-20T00:47:18;8.40;;;5.70;;
35578;SDS011;21687;48.900;9.188;2023-04-20T00:49:45;6.67;;;5.53;;
35578;SDS011;21687;48.900;9.188;2023-04-20T00:52:11;7.57;;;5.53;;
35578;SDS011;21687;48.900;9.188;2023-04-20T00:54:38;6.60;;;5.43;;
35578;SDS011;21687;48.900;9.188;2023-04-20T00:57:04;10.53;;;6.33;;
35578;SDS011;21687;48.900;9.188;2023-04-20T00:59:30;8.17;;;5.87;;
35578;SDS011;21687;48.900;9.188;2023-04-20T01:01:57;8.30;;;5.73;;
35578;SDS011;21687;48.900;9.188;2023-04-20T01:04:23;8.90;;;5.53;;
35578;SDS011;21687;48.900;9.188;2023-04-20T01:06:50;7.60;;;5.40;;
35578;SDS011;21687;48.900;9.188;2023-04-20T01:09:16;8.80;;;5.87;;
35578;SDS011;21687;48.900;9.188;2023-04-20T01:11:42;10.30;;;5.77;;
35578;SDS011;21687;48.900;9.188;2023-04-20T01:14:08;7.27;;;5.43;;
35578;SDS011;21687;48.900;9.188;2023-04-20T01:16:34;9.00;;;6.10;;
35578;SDS011;21687;48.900;9.188;2023-04-20T01:19:01;8.30;;;5.73;;
35578;SDS011;21687;48.900;9.188;2023-04-20T01:21:28;8.20;;;5.67;;
35578;SDS011;21687;48.900;9.188;2023-04-20T01:23:55;6.40;;;5.10;;
35578;SDS011;21687;48.900;9.188;2023-04-20T01:26:21;7.03;;;5.70;;
35578;SDS011;21687;48.900;9.188;2023-04-20T01:28:48;6.83;;;5.53;;
35578;SDS011;21687;48.900;9.188;2023-04-20T01:31:14;7.90;;;5.87;;
35578;SDS011;21687;48.900;9.188;2023-04-20T01:33:41;7.20;;;5.93;;
35578;SDS011;21687;48.900;9.188;2023-04-20T01:36:07;7.70;;;5.50;;
35578;SDS011;21687;48.900;9.188;2023-04-20T01:38:34;6.20;;;5.20;;
35578;SDS011;21687;48.900;9.188;2023-04-20T01:41:02;7.00;;;5.40;;
35578;SDS011;21687;48.900;9.188;2023-04-20T01:43:29;6.70;;;5.37;;
35578;SDS011;21687;48.900;9.188;2023-04-20T01:45:56;8.73;;;6.30;;
35578;SDS011;21687;48.900;9.188;2023-04-20T01:48:23;8.37;;;5.60;;
35578;SDS011;21687;48.900;9.188;2023-04-20T01:50:50;10.10;;;6.03;;
35578;SDS011;21687;48.900;9.188;2023-04-20T01:53:17;11.57;;;5.97;;
35578;SDS011;21687;48.900;9.188;2023-04-20T01:55:43;6.90;;;5.63;;
35578;SDS011;21687;48.900;9.188;2023-04-20T01:58:10;8.50;;;5.97;;
35578;SDS011;21687;48.900;9.188;2023-04-20T02:00:36;13.63;;;5.73;;
35578;SDS011;21687;48.900;9.188;2023-04-20T02:03:02;12.80;;;6.53;;
35578;SDS011;21687;48.900;9.188;2023-04-20T02:05:29;6.50;;;5.77;;
35578;SDS011;21687;48.900;9.188;2023-04-20T02:07:55;9.30;;;6.10;;
35578;SDS011;21687;48.900;9.188;2023-04-20T02:10:21;9.60;;;6.07;;
35578;SDS011;21687;48.900;9.188;2023-04-20T02:12:48;8.57;;;6.13;;
35578;SDS011;21687;48.900;9.188;2023-04-20T02:15:15;8.33;;;6.20;;
35578;SDS011;21687;48.900;9.188;2023-04-20T02:17:41;7.17;;;5.60;;
35578;SDS011;21687;48.900;9.188;2023-04-20T02:20:08;10.07;;;6.47;;
35578;SDS011;21687;48.900;9.188;2023-04-20T02:22:35;7.67;;;5.80;;
35578;SDS011;21687;48.900;9.188;2023-04-20T02:25:02;8.07;;;6.17;;
35578;SDS011;21687;48.900;9.188;2023-04-20T02:27:30;7.80;;;6.30;;
35578;SDS011;21687;48.900;9.188;2023-04-20T02:29:57;5.83;;;5.20;;
35578;SDS011;21687;48.900;9.188;2023-04-20T02:32:24;11.27;;;5.90;;
35578;SDS011;21687;48.900;9.188;2023-04-20T02:34:50;7.63;;;5.73;;
35578;SDS011;21687;48.900;9.188;2023-04-20T02:37:17;11.83;;;5.93;;
35578;SDS011;21687;48.900;9.188;2023-04-20T02:39:43;8.37;;;5.67;;
35578;SDS011;21687;48.900;9.188;2023-04-20T02:42:10;7.33;;;5.93;;
35578;SDS011;21687;48.900;9.188;2023-04-20T02:44:36;7.27;;;6.47;;
35578;SDS011;21687;48.900;9.188;2023-04-20T02:47:02;7.47;;;6.10;;
35578;SDS011;21687;48.900;9.188;2023-04-20T02:49:29;8.37;;;6.30;;
35578;SDS011;21687;48.900;9.188;2023-04-20T02:51:55;7.87;;;6.00;;
35578;SDS011;21687;48.900;9.188;2023-04-20T02:54:21;7.43;;;5.87;;
35578;SDS011;21687;48.900;9.188;2023-04-20T02:56:48;8.30;;;6.73;;
35578;SDS011;21687;48.900;9.188;2023-04-20T02:59:14;11.00;;;6.63;;
35578;SDS011;21687;48.900;9.188;2023-04-20T03:01:40;7.87;;;6.10;;
35578;SDS011;21687;48.900;9.188;2023-04-20T03:04:07;8.33;;;6.43;;
35578;SDS011;21687;48.900;9.188;2023-04-20T03:06:33;10.23;;;6.50;;
35578;SDS011;21687;48.900;9.188;2023-04-20T03:09:00;9.43;;;6.77;;
35578;SDS011;21687;48.900;9.188;2023-04-20T03:11:27;8.87;;;6.63;;
35578;SDS011;21687;48.900;9.188;2023-04-20T03:13:55;10.80;;;6.63;;
35578;SDS011;21687;48.900;9.188;2023-04-20T03:16:21;8.90;;;6.03;;
35578;SDS011;21687;48.900;9.188;2023-04-20T03:18:47;9.23;;;7.50;;
35578;SDS011;21687;48.900;9.188;2023-04-20T03:21:13;10.47;;;7.07;;
35578;SDS011;21687;48.900;9.188;2023-04-20T03:23:40;9.30;;;7.23;;
35578;SDS011;21687;48.900;9.188;2023-04-20T03:26:06;9.63;;;7.37;;
35578;SDS011;21687;48.900;9.188;2023-04-20T03:28:32;10.73;;;7.60;;
35578;SDS011;21687;48.900;9.188;2023-04-20T03:30:59;10.50;;;7.67;;
35578;SDS011;21687;48.900;9.188;2023-04-20T03:33:25;8.53;;;7.33;;
35578;SDS011;21687;48.900;9.188;2023-04-20T03:35:52;9.47;;;8.10;;
35578;SDS011;21687;48.900;9.188;2023-04-20T03:38:18;11.40;;;8.33;;
35578;SDS011;21687;48.900;9.188;2023-04-20T03:40:45;9.57;;;8.27;;
35578;SDS011;21687;48.900;9.188;2023-04-20T03:43:11;12.00;;;7.70;;
35578;SDS011;21687;48.900;9.188;2023-04-20T03:45:37;11.73;;;7.70;;
35578;SDS011;21687;48.900;9.188;2023-04-20T03:48:03;12.10;;;7.73;;
35578;SDS011;21687;48.900;9.188;2023-04-20T03:50:30;11.33;;;8.13;;
35578;SDS011;21687;48.900;9.188;2023-04-20T03:52:56;10.03;;;7.53;;
35578;SDS011;21687;48.900;9.188;2023-04-20T03:55:22;10.40;;;7.70;;
35578;SDS011;21687;48.900;9.188;2023-04-20T03:57:48;10.97;;;7.50;;
35578;SDS011;21687;48.900;9.188;2023-04-20T04:00:14;10.53;;;8.30;;
35578;SDS011;21687;48.900;9.188;2023-04-20T04:02:41;11.50;;;8.30;;
35578;SDS011;21687;48.900;9.188;2023-04-20T04:05:07;11.27;;;7.97;;
35578;SDS011;21687;48.900;9.188;2023-04-20T04:07:33;11.87;;;8.57;;
35578;SDS011;21687;48.900;9.188;2023-04-20T04:09:59;14.07;;;8.67;;
35578;SDS011;21687;48.900;9.188;2023-04-20T04:12:28;13.00;;;8.33;;
35578;SDS011;21687;48.900;9.188;2023-04-20T04:14:55;13.27;;;8.30;;
35578;SDS011;21687;48.900;9.188;2023-04-20T04:17:21;12.97;;;8.30;;
35578;SDS011;21687;48.900;9.188;2023-04-20T04:19:47;14.23;;;8.50;;
35578;SDS011;21687;48.900;9.188;2023-04-20T04:22:14;15.20;;;8.80;;
35578;SDS011;21687;48.900;9.188;2023-04-20T04:24:40;12.63;;;8.83;;
35578;SDS011;21687;48.900;9.188;2023-04-20T04:27:06;11.10;;;8.40;;
35578;SDS011;21687;48.900;9.188;2023-04-20T04:29:32;11.00;;;8.70;;
35578;SDS011;21687;48.900;9.188;2023-04-20T04:32:00;10.53;;;8.17;;
35578;SDS011;21687;48.900;9.188;2023-04-20T04:34:27;11.50;;;8.57;;
35578;SDS011;21687;48.900;9.188;2023-04-20T04:36:54;12.53;;;9.43;;
35578;SDS011;21687;48.900;9.188;2023-04-20T04:39:21;13.23;;;9.10;;
35578;SDS011;21687;48.900;9.188;2023-04-20T04:41:47;14.30;;;10.80;;
35578;SDS011;21687;48.900;9.188;2023-04-20T04:44:13;14.47;;;11.00;;
35578;SDS011;21687;48.900;9.188;2023-04-20T04:46:40;15.07;;;10.27;;
35578;SDS011;21687;48.900;9.188;2023-04-20T04:49:11;13.10;;;10.67;;
35578;SDS011;21687;48.900;9.188;2023-04-20T04:51:38;12.30;;;9.83;;
35578;SDS011;21687;48.900;9.188;2023-04-20T04:54:04;17.90;;;10.10;;
35578;SDS011;21687;48.900;9.188;2023-04-20T04:56:30;17.90;;;10.77;;
35578;SDS011;21687;48.900;9.188;2023-04-20T04:58:56;14.50;;;10.77;;
35578;SDS011;21687;48.900;9.188;2023-04-20T05:01:23;14.60;;;11.37;;
35578;SDS011;21687;48.900;9.188;2023-04-20T05:03:49;15.93;;;11.80;;
35578;SDS011;21687;48.900;9.188;2023-04-20T05:06:15;14.67;;;11.70;;
35578;SDS011;21687;48.900;9.188;2023-04-20T05:08:42;15.20;;;11.57;;
35578;SDS011;21687;48.900;9.188;2023-04-20T05:11:08;15.70;;;11.27;;
35578;SDS011;21687;48.900;9.188;2023-04-20T05:13:34;20.03;;;12.37;;
35578;SDS011;21687;48.900;9.188;2023-04-20T05:16:01;15.67;;;11.67;;
35578;SDS011;21687;48.900;9.188;2023-04-20T05:18:27;20.17;;;12.10;;
35578;SDS011;21687;48.900;9.188;2023-04-20T05:20:53;14.40;;;11.37;;
35578;SDS011;21687;48.900;9.188;2023-04-20T05:23:19;16.40;;;11.47;;
35578;SDS011;21687;48.900;9.188;2023-04-20T05:25:45;27.80;;;15.50;;
35578;SDS011;21687;48.900;9.188;2023-04-20T05:28:12;22.17;;;13.57;;
35578;SDS011;21687;48.900;9.188;2023-04-20T05:30:38;18.77;;;13.17;;
35578;SDS011;21687;48.900;9.188;2023-04-20T05:33:04;19.20;;;13.27;;
35578;SDS011;21687;48.900;9.188;2023-04-20T05:35:30;22.17;;;14.53;;
35578;SDS011;21687;48.900;9.188;2023-04-20T05:37:56;19.83;;;14.53;;
35578;SDS011;21687;48.900;9.188;2023-04-20T05:40:26;22.53;;;14.37;;
35578;SDS011;21687;48.900;9.188;2023-04-20T05:42:53;19.17;;;13.97;;
35578;SDS011;21687;48.900;9.188;2023-04-20T05:45:19;20.07;;;13.90;;
35578;SDS011;21687;48.900;9.188;2023-04-20T05:47:52;19.53;;;14.10;;
35578;SDS011;21687;48.900;9.188;2023-04-20T05:50:20;15.83;;;12.90;;
35578;SDS011;21687;48.900;9.188;2023-04-20T05:52:47;21.80;;;14.07;;
35578;SDS011;21687;48.900;9.188;2023-04-20T05:55:13;15.57;;;12.70;;
35578;SDS011;21687;48.900;9.188;2023-04-20T05:57:40;16.33;;;12.00;;
35578;SDS011;21687;48.900;9.188;2023-04-20T06:00:09;14.67;;;11.97;;
35578;SDS011;21687;48.900;9.188;2023-04-20T06:02:37;13.50;;;10.40;;
35578;SDS011;21687;48.900;9.188;2023-04-20T06:05:05;11.93;;;9.97;;
35578;SDS011;21687;48.900;9.188;2023-04-20T06:07:33;11.93;;;9.50;;
35578;SDS011;21687;48.900;9.188;2023-04-20T06:10:00;13.77;;;10.27;;
35578;SDS011;21687;48.900;9.188;2023-04-20T06:12:27;9.67;;;7.93;;
35578;SDS011;21687;48.900;9.188;2023-04-20T06:14:56;10.53;;;8.00;;
35578;SDS011;21687;48.900;9.188;2023-04-20T06:17:22;11.27;;;8.20;;
35578;SDS011;21687;48.900;9.188;2023-04-20T06:19:49;11.33;;;8.23;;
35578;SDS011;21687;48.900;9.188;2023-04-20T06:22:15;11.17;;;7.83;;
35578;SDS011;21687;48.900;9.188;2023-04-20T06:24:42;10.40;;;8.23;;
35578;SDS011;21687;48.900;9.188;2023-04-20T06:27:08;8.13;;;7.33;;
35578;SDS011;21687;48.900;9.188;2023-04-20T06:29:35;9.27;;;7.67;;
35578;SDS011;21687;48.900;9.188;2023-04-20T06:32:01;11.43;;;8.17;;
35578;SDS011;21687;48.900;9.188;2023-04-20T06:34:28;8.17;;;7.20;;
35578;SDS011;21687;48.900;9.188;2023-04-20T06:36:55;10.03;;;7.30;;
35578;SDS011;21687;48.900;9.188;2023-04-20T06:39:21;12.07;;;7.57;;
35578;SDS011;21687;48.900;9.188;2023-04-20T06:41:47;10.47;;;7.03;;
35578;SDS011;21687;48.900;9.188;2023-04-20T06:44:13;7.87;;;6.27;;
35578;SDS011;21687;48.900;9.188;2023-04-20T06:46:39;10.63;;;6.43;;
35578;SDS011;21687;48.900;9.188;2023-04-20T06:49:06;7.07;;;5.90;;
35578;SDS011;21687;48.900;9.188;2023-04-20T06:51:32;9.23;;;6.50;;
35578;SDS011;21687;48.900;9.188;2023-04-20T06:53:58;8.60;;;6.10;;
35578;SDS011;21687;48.900;9.188;2023-04-20T06:56:24;8.70;;;6.23;;
35578;SDS011;21687;48.900;9.188;2023-04-20T06:58:51;7.70;;;5.73;;
35578;SDS011;21687;48.900;9.188;2023-04-20T07:01:17;8.03;;;6.50;;
35578;SDS011;21687;48.900;9.188;2023-04-20T07:03:43;9.83;;;6.20;;
35578;SDS011;21687;48.900;9.188;2023-04-20T07:06:10;11.97;;;5.93;;
35578;SDS011;21687;48.900;9.188;2023-04-20T07:08:37;7.90;;;6.10;;
35578;SDS011;21687;48.900;9.188;2023-04-20T07:11:04;8.80;;;5.73;;
35578;SDS011;21687;48.900;9.188;2023-04-20T07:13:33;8.00;;;6.23;;
35578;SDS011;21687;48.900;9.188;2023-04-20T07:15:59;8.43;;;6.33;;
35578;SDS011;21687;48.900;9.188;2023-04-20T07:18:25;8.47;;;5.80;;
35578;SDS011;21687;48.900;9.188;2023-04-20T07:20:52;10.37;;;6.20;;
35578;SDS011;21687;48.900;9.188;2023-04-20T07:23:18;10.10;;;5.93;;
35578;SDS011;21687;48.900;9.188;2023-04-20T07:25:44;8.47;;;6.33;;
35578;SDS011;21687;48.900;9.188;2023-04-20T07:28:10;7.53;;;5.93;;
35578;SDS011;21687;48.900;9.188;2023-04-20T07:30:37;9.90;;;6.63;;
35578;SDS011;21687;48.900;9.188;2023-04-20T07:33:03;8.87;;;5.50;;
35578;SDS011;21687;48.900;9.188;2023-04-20T07:35:29;10.60;;;6.17;;
35578;SDS011;21687;48.900;9.188;2023-04-20T07:37:55;9.10;;;5.83;;
35578;SDS011;21687;48.900;9.188;2023-04-20T07:40:22;8.40;;;5.43;;
35578;SDS011;21687;48.900;9.188;2023-04-20T07:42:48;8.83;;;6.07;;
35578;SDS011;21687;48.900;9.188;2023-04-20T07:45:14;8.70;;;6.17;;
35578;SDS011;21687;48.900;9.188;2023-04-20T07:47:41;8.13;;;5.77;;
35578;SDS011;21687;48.900;9.188;2023-04-20T07:50:11;6.93;;;5.93;;
35578;SDS011;21687;48.900;9.188;2023-04-20T07:52:37;6.17;;;5.50;;
35578;SDS011;21687;48.900;9.188;2023-04-20T07:55:04;9.83;;;5.63;;
35578;SDS011;21687;48.900;9.188;2023-04-20T07:57:33;7.77;;;5.60;;
35578;SDS011;21687;48.900;9.188;2023-04-20T08:00:00;6.77;;;6.07;;
35578;SDS011;21687;48.900;9.188;2023-04-20T08:02:26;9.00;;;6.00;;
35578;SDS011;21687;48.900;9.188;2023-04-20T08:04:55;11.40;;;6.10;;
35578;SDS011;21687;48.900;9.188;2023-04-20T08:07:21;8.80;;;5.63;;
35578;SDS011;21687;48.900;9.188;2023-04-20T08:09:49;8.50;;;5.77;;
35578;SDS011;21687;48.900;9.188;2023-04-20T08:12:15;7.83;;;5.83;;
35578;SDS011;21687;48.900;9.188;2023-04-20T08:14:41;7.63;;;5.73;;
35578;SDS011;21687;48.900;9.188;2023-04-20T08:17:07;9.43;;;6.07;;
35578;SDS011;21687;48.900;9.188;2023-04-20T08:19:34;6.17;;;5.57;;
35578;SDS011;21687;48.900;9.188;2023-04-20T08:22:00;10.67;;;6.33;;
35578;SDS011;21687;48.900;9.188;2023-04-20T08:24:26;8.90;;;5.90;;
35578;SDS011;21687;48.900;9.188;2023-04-20T08:26:53;9.07;;;6.57;;
35578;SDS011;21687;48.900;9.188;2023-04-20T08:29:19;7.40;;;5.80;;
35578;SDS011;21687;48.900;9.188;2023-04-20T08:31:46;8.10;;;6.97;;
35578;SDS011;21687;48.900;9.188;2023-04-20T08:34:12;8.90;;;6.77;;
35578;SDS011;21687;48.900;9.188;2023-04-20T08:36:38;10.20;;;7.43;;
35578;SDS011;21687;48.900;9.188;2023-04-20T08:39:05;10.83;;;7.13;;
35578;SDS011;21687;48.900;9.188;2023-04-20T08:41:33;7.63;;;6.23;;
35578;SDS011;21687;48.900;9.188;2023-04-20T08:44:00;10.93;;;6.53;;
35578;SDS011;21687;48.900;9.188;2023-04-20T08:46:27;8.43;;;6.67;;
35578;SDS011;21687;48.900;9.188;2023-04-20T08:48:54;9.03;;;6.77;;
35578;SDS011;21687;48.900;9.188;2023-04-20T08:51:20;8.53;;;7.10;;
35578;SDS011;21687;48.900;9.188;2023-04-20T08:53:47;8.97;;;6.60;;
35578;SDS011;21687;48.900;9.188;2023-04-20T08:56:13;11.13;;;7.27;;
35578;SDS011;21687;48.900;9.188;2023-04-20T08:58:40;12.00;;;7.53;;
35578;SDS011;21687;48.900;9.188;2023-04-20T09:01:07;9.80;;;6.90;;
35578;SDS011;21687;48.900;9.188;2023-04-20T09:03:40;9.03;;;6.73;;
35578;SDS011;21687;48.900;9.188;2023-04-20T09:06:13;8.83;;;6.70;;
35578;SDS011;21687;48.900;9.188;2023-04-20T09:08:41;7.67;;;6.50;;
35578;SDS011;21687;48.900;9.188;2023-04-20T09:11:24;12.50;;;7.03;;
35578;SDS011;21687;48.900;9.188;2023-04-20T09:16:27;9.77;;;6.50;;
35578;SDS011;21687;48.900;9.188;2023-04-20T09:18:55;8.00;;;6.60;;
35578;SDS011;21687;48.900;9.188;2023-04-20T09:21:22;14.70;;;7.00;;
35578;SDS011;21687;48.900;9.188;2023-04-20T09:26:23;7.77;;;6.70;;
35578;SDS011;21687;48.900;9.188;2023-04-20T09:28:50;12.13;;;7.13;;
35578;SDS011;21687;48.900;9.188;2023-04-20T09:31:20;11.63;;;7.10;;
35578;SDS011;21687;48.900;9.188;2023-04-20T09:33:57;7.87;;;6.60;;
35578;SDS011;21687;48.900;9.188;2023-04-20T09:36:33;7.60;;;6.73;;
35578;SDS011;21687;48.900;9.188;2023-04-20T09:39:08;9.00;;;6.80;;
35578;SDS011;21687;48.900;9.188;2023-04-20T09:41:36;11.07;;;7.80;;
35578;SDS011;21687;48.900;9.188;2023-04-20T09:44:03;10.03;;;6.70;;
35578;SDS011;21687;48.900;9.188;2023-04-20T09:46:31;7.23;;;6.07;;
35578;SDS011;21687;48.900;9.188;2023-04-20T09:49:00;10.37;;;6.70;;
35578;SDS011;21687;48.900;9.188;2023-04-20T09:51:28;8.03;;;6.13;;
35578;SDS011;21687;48.900;9.188;2023-04-20T09:53:57;8.00;;;6.30;;
35578;SDS011;21687;48.900;9.188;2023-04-20T09:56:24;8.03;;;6.57;;
35578;SDS011;21687;48.900;9.188;2023-04-20T09:58:52;8.17;;;6.07;;
35578;SDS011;21687;48.900;9.188;2023-04-20T10:01:19;7.47;;;6.30;;
35578;SDS011;21687;48.900;9.188;2023-04-20T10:03:52;10.00;;;6.43;;
35578;SDS011;21687;48.900;9.188;2023-04-20T10:06:22;8.70;;;5.93;;
35578;SDS011;21687;48.900;9.188;2023-04-20T10:08:53;7.37;;;6.13;;
35578;SDS011;21687;48.900;9.188;2023-04-20T10:11:24;7.20;;;6.10;;
35578;SDS011;21687;48.900;9.188;2023-04-20T10:13:51;7.13;;;6.27;;
35578;SDS011;21687;48.900;9.188;2023-04-20T10:16:18;7.93;;;5.80;;
35578;SDS011;21687;48.900;9.188;2023-04-20T10:18:58;8.17;;;6.20;;
35578;SDS011;21687;48.900;9.188;2023-04-20T10:21:27;7.40;;;6.00;;
35578;SDS011;21687;48.900;9.188;2023-04-20T10:23:54;8.20;;;6.13;;
35578;SDS011;21687;48.900;9.188;2023-04-20T10:26:23;10.47;;;6.60;;
35578;SDS011;21687;48.900;9.188;2023-04-20T10:28:59;7.63;;;6.40;;
35578;SDS011;21687;48.900;9.188;2023-04-20T10:31:33;8.90;;;6.40;;
35578;SDS011;21687;48.900;9.188;2023-04-20T10:34:01;8.53;;;6.50;;
35578;SDS011;21687;48.900;9.188;2023-04-20T10:36:28;9.90;;;6.57;;
35578;SDS011;21687;48.900;9.188;2023-04-20T10:38:55;8.30;;;6.53;;
35578;SDS011;21687;48.900;9.188;2023-04-20T10:41:22;8.40;;;6.23;;
35578;SDS011;21687;48.900;9.188;2023-04-20T10:43:48;9.07;;;6.10;;
35578;SDS011;21687;48.900;9.188;2023-04-20T10:46:18;10.43;;;6.60;;
35578;SDS011;21687;48.900;9.188;2023-04-20T10:48:56;8.47;;;5.90;;
35578;SDS011;21687;48.900;9.188;2023-04-20T10:51:27;9.90;;;6.70;;
35578;SDS011;21687;48.900;9.188;2023-04-20T10:59:08;7.07;;;5.57;;
35578;SDS011;21687;48.900;9.188;2023-04-20T11:01:35;8.27;;;5.03;;
35578;SDS011;21687;48.900;9.188;2023-04-20T11:04:02;6.47;;;5.47;;
35578;SDS011;21687;48.900;9.188;2023-04-20T11:06:29;5.30;;;4.77;;
35578;SDS011;21687;48.900;9.188;2023-04-20T11:08:56;6.97;;;4.80;;
35578;SDS011;21687;48.900;9.188;2023-04-20T11:11:23;8.27;;;5.37;;
35578;SDS011;21687;48.900;9.188;2023-04-20T11:13:52;7.03;;;5.30;;
35578;SDS011;21687;48.900;9.188;2023-04-20T11:16:31;6.77;;;5.53;;
35578;SDS011;21687;48.900;9.188;2023-04-20T11:18:57;8.60;;;5.50;;
35578;SDS011;21687;48.900;9.188;2023-04-20T11:21:33;6.40;;;5.73;;
35578;SDS011;21687;48.900;9.188;2023-04-20T11:24:04;6.40;;;5.70;;
35578;SDS011;21687;48.900;9.188;2023-04-20T11:26:44;7.33;;;5.43;;
35578;SDS011;21687;48.900;9.188;2023-04-20T11:29:25;8.47;;;6.20;;
35578;SDS011;21687;48.900;9.188;2023-04-20T11:31:58;7.17;;;5.83;;
35578;SDS011;21687;48.900;9.188;2023-04-20T11:34:35;7.47;;;6.33;;
35578;SDS011;21687;48.900;9.188;2023-04-20T11:37:06;6.80;;;6.10;;
35578;SDS011;21687;48.900;9.188;2023-04-20T11:39:38;7.83;;;6.27;;
35578;SDS011;21687;48.900;9.188;2023-04-20T11:42:05;10.27;;;6.83;;
35578;SDS011;21687;48.900;9.188;2023-04-20T11:44:31;9.00;;;7.43;;
35578;SDS011;21687;48.900;9.188;2023-04-20T11:47:00;9.57;;;7.40;;
35578;SDS011;21687;48.900;9.188;2023-04-20T11:49:27;7.90;;;6.73;;
35578;SDS011;21687;48.900;9.188;2023-04-20T11:51:53;11.20;;;7.03;;
35578;SDS011;21687;48.900;9.188;2023-04-20T11:54:20;8.80;;;7.50;;
35578;SDS011;21687;48.900;9.188;2023-04-20T11:56:47;11.07;;;7.13;;
35578;SDS011;21687;48.900;9.188;2023-04-20T11:59:13;8.13;;;6.97;;
35578;SDS011;21687;48.900;9.188;2023-04-20T12:01:43;11.60;;;7.90;;
35578;SDS011;21687;48.900;9.188;2023-04-20T12:04:10;8.83;;;7.00;;
35578;SDS011;21687;48.900;9.188;2023-04-20T12:06:36;8.57;;;7.53;;
35578;SDS011;21687;48.900;9.188;2023-04-20T12:09:02;11.53;;;8.20;;
35578;SDS011;21687;48.900;9.188;2023-04-20T12:11:31;8.13;;;6.77;;
35578;SDS011;21687;48.900;9.188;2023-04-20T12:13:57;12.03;;;7.77;;
35578;SDS011;21687;48.900;9.188;2023-04-20T12:16:24;10.83;;;7.83;;
35578;SDS011;21687;48.900;9.188;2023-04-20T12:18:50;11.00;;;7.27;;
35578;SDS011;21687;48.900;9.188;2023-04-20T12:21:16;8.70;;;7.80;;
35578;SDS011;21687;48.900;9.188;2023-04-20T12:23:43;9.33;;;7.93;;
35578;SDS011;21687;48.900;9.188;2023-04-20T12:26:09;8.30;;;7.50;;
35578;SDS011;21687;48.900;9.188;2023-04-20T12:28:35;8.57;;;7.67;;
35578;SDS011;21687;48.900;9.188;2023-04-20T12:31:01;9.53;;;8.23;;
35578;SDS011;21687;48.900;9.188;2023-04-20T12:33:28;8.70;;;7.80;;
35578;SDS011;21687;48.900;9.188;2023-04-20T12:35:54;10.10;;;8.20;;
35578;SDS011;21687;48.900;9.188;2023-04-20T12:38:20;11.13;;;8.30;;
35578;SDS011;21687;48.900;9.188;2023-04-20T12:40:46;11.93;;;8.07;;
35578;SDS011;21687;48.900;9.188;2023-04-20T12:43:12;9.63;;;8.07;;
35578;SDS011;21687;48.900;9.188;2023-04-20T12:45:39;9.67;;;7.60;;
35578;SDS011;21687;48.900;9.188;2023-04-20T12:48:06;9.10;;;8.00;;
35578;SDS011;21687;48.900;9.188;2023-04-20T12:50:32;10.07;;;7.70;;
35578;SDS011;21687;48.900;9.188;2023-04-20T12:52:58;12.90;;;8.60;;
35578;SDS011;21687;48.900;9.188;2023-04-20T12:55:25;8.90;;;8.00;;
35578;SDS011;21687;48.900;9.188;2023-04-20T12:57:51;9.63;;;7.77;;
35578;SDS011;21687;48.900;9.188;2023-04-20T13:00:17;10.33;;;7.63;;
35578;SDS011;21687;48.900;9.188;2023-04-20T13:02:44;8.57;;;7.67;;
35578;SDS011;21687;48.900;9.188;2023-04-20T13:05:10;8.03;;;6.90;;
35578;SDS011;21687;48.900;9.188;2023-04-20T13:07:36;12.10;;;6.83;;
35578;SDS011;21687;48.900;9.188;2023-04-20T13:10:03;8.17;;;7.07;;
35578;SDS011;21687;48.900;9.188;2023-04-20T13:12:29;7.40;;;6.20;;
35578;SDS011;21687;48.900;9.188;2023-04-20T13:14:56;7.70;;;5.67;;
35578;SDS011;21687;48.900;9.188;2023-04-20T13:17:22;7.47;;;5.90;;
35578;SDS011;21687;48.900;9.188;2023-04-20T13:19:48;7.47;;;5.77;;
35578;SDS011;21687;48.900;9.188;2023-04-20T13:22:16;7.23;;;6.17;;
35578;SDS011;21687;48.900;9.188;2023-04-20T13:24:42;6.30;;;5.67;;
35578;SDS011;21687;48.900;9.188;2023-04-20T13:27:08;7.60;;;5.50;;
35578;SDS011;21687;48.900;9.188;2023-04-20T13:29:35;6.43;;;5.43;;
35578;SDS011;21687;48.900;9.188;2023-04-20T13:32:01;8.30;;;5.57;;
35578;SDS011;21687;48.900;9.188;2023-04-20T13:34:27;7.37;;;5.43;;
35578;SDS011;21687;48.900;9.188;2023-04-20T13:36:53;7.37;;;5.70;;
35578;SDS011;21687;48.900;9.188;2023-04-20T13:39:20;8.23;;;5.80;;
35578;SDS011;21687;48.900;9.188;2023-04-20T13:41:48;8.57;;;5.70;;
35578;SDS011;21687;48.900;9.188;2023-04-20T13:44:14;6.30;;;5.50;;
35578;SDS011;21687;48.900;9.188;2023-04-20T13:46:41;6.70;;;6.00;;
35578;SDS011;21687;48.900;9.188;2023-04-20T13:49:08;6.57;;;5.70;;
35578;SDS011;21687;48.900;9.188;2023-04-20T13:51:35;9.00;;;5.23;;
35578;SDS011;21687;48.900;9.188;2023-04-20T13:54:04;7.50;;;5.50;;
35578;SDS011;21687;48.900;9.188;2023-04-20T13:56:34;7.57;;;5.70;;
35578;SDS011;21687;48.900;9.188;2023-04-20T13:59:00;8.90;;;6.47;;
35578;SDS011;21687;48.900;9.188;2023-04-20T14:01:28;6.37;;;5.00;;
35578;SDS011;21687;48.900;9.188;2023-04-20T14:03:55;7.03;;;5.70;;
35578;SDS011;21687;48.900;9.188;2023-04-20T14:06:21;6.87;;;5.53;;
35578;SDS011;21687;48.900;9.188;2023-04-20T14:08:47;9.17;;;5.70;;
35578;SDS011;21687;48.900;9.188;2023-04-20T14:11:14;7.23;;;5.63;;
35578;SDS011;21687;48.900;9.188;2023-04-20T14:13:40;8.13;;;5.77;;
35578;SDS011;21687;48.900;9.188;2023-04-20T14:16:07;8.43;;;6.20;;
35578;SDS011;21687;48.900;9.188;2023-04-20T14:18:35;8.37;;;6.30;;
35578;SDS011;21687;48.900;9.188;2023-04-20T14:21:02;6.60;;;5.90;;
35578;SDS011;21687;48.900;9.188;2023-04-20T14:23:31;8.60;;;5.90;;
35578;SDS011;21687;48.900;9.188;2023-04-20T14:25:57;6.43;;;5.73;;
35578;SDS011;21687;48.900;9.188;2023-04-20T14:28:23;6.13;;;5.37;;
35578;SDS011;21687;48.900;9.188;2023-04-20T14:30:50;5.10;;;4.60;;
35578;SDS011;21687;48.900;9.188;2023-04-20T14:33:16;5.63;;;4.97;;
35578;SDS011;21687;48.900;9.188;2023-04-20T14:35:42;8.00;;;4.80;;
35578;SDS011;21687;48.900;9.188;2023-04-20T14:38:10;5.23;;;4.73;;
35578;SDS011;21687;48.900;9.188;2023-04-20T14:40:36;5.40;;;4.90;;
35578;SDS011;21687;48.900;9.188;2023-04-20T14:43:02;4.97;;;4.40;;
35578;SDS011;21687;48.900;9.188;2023-04-20T14:45:29;6.00;;;5.20;;
35578;SDS011;21687;48.900;9.188;2023-04-20T14:47:55;6.67;;;5.47;;
35578;SDS011;21687;48.900;9.188;2023-04-20T14:50:22;8.10;;;5.40;;